Schin op Geul, Netherlands
Current Conditions -  °F | °C
As of 4:25 AM on Tuesday 27 Jan 2015 (Local Time) from EHBK Reporting Station
Scattered Clouds Scattered Clouds  
Wind Chill: 31°   Ceiling: Unl
Heat Index: 36°   Visibility: 6mi
Dew Point: 34°   Wind: 6mph
Humidity: 93%   Direction: 270°W
Pressure: 30.21"   Gusts: NA
Location:  50.85°N, 5.87°E
Report Text: EHBK 270325Z AUTO 27005KT 230V300 9999 SCT039 02/01 Q1023
Loading
Personal Weather Stations






























Interactive Weather Map New forecast layout! Learn more

10-Day Weather Forecast

Advertisements
Track Severe Weather on mobile